sensor_id;sensor_type;location;lat;lon;timestamp;pressure;altitude;pressure_sealevel;temperature;humidity
10806;BME280;5455;53.224;6.000;2023-03-01T00:01:14;103291.72;;;-1.28;100.00
10806;BME280;5455;53.224;6.000;2023-03-01T00:03:42;103280.03;;;-1.22;100.00
10806;BME280;5455;53.224;6.000;2023-03-01T00:06:09;103287.00;;;-1.14;100.00
10806;BME280;5455;53.224;6.000;2023-03-01T00:08:38;103280.41;;;-1.18;100.00
10806;BME280;5455;53.224;6.000;2023-03-01T00:13:35;103284.00;;;-1.24;100.00
10806;BME280;5455;53.224;6.000;2023-03-01T00:16:05;103276.97;;;-1.32;100.00
10806;BME280;5455;53.224;6.000;2023-03-01T00:18:33;103289.06;;;-1.34;100.00
10806;BME280;5455;53.224;6.000;2023-03-01T00:21:00;103272.38;;;-1.31;100.00
10806;BME280;5455;53.224;6.000;2023-03-01T00:23:27;103277.34;;;-1.28;100.00
10806;BME280;5455;53.224;6.000;2023-03-01T00:25:54;103288.13;;;-1.22;100.00
10806;BME280;5455;53.224;6.000;2023-03-01T00:28:22;103274.22;;;-1.25;100.00
10806;BME280;5455;53.224;6.000;2023-03-01T00:30:50;103260.72;;;-1.32;100.00
10806;BME280;5455;53.224;6.000;2023-03-01T00:33:17;103273.22;;;-1.31;100.00
10806;BME280;5455;53.224;6.000;2023-03-01T00:35:44;103279.66;;;-1.32;100.00
10806;BME280;5455;53.224;6.000;2023-03-01T00:38:12;103275.53;;;-1.34;100.00
10806;BME280;5455;53.224;6.000;2023-03-01T00:40:39;103273.47;;;-1.32;100.00
10806;BME280;5455;53.224;6.000;2023-03-01T00:43:06;103262.84;;;-1.34;100.00
10806;BME280;5455;53.224;6.000;2023-03-01T00:45:33;103270.75;;;-1.32;100.00
10806;BME280;5455;53.224;6.000;2023-03-01T00:48:00;103278.44;;;-1.29;100.00
10806;BME280;5455;53.224;6.000;2023-03-01T00:50:27;103271.75;;;-1.27;100.00
10806;BME280;5455;53.224;6.000;2023-03-01T00:52:55;103280.06;;;-1.28;100.00
10806;BME280;5455;53.224;6.000;2023-03-01T00:55:23;103281.28;;;-1.24;100.00
10806;BME280;5455;53.224;6.000;2023-03-01T00:57:50;103279.41;;;-1.24;100.00
10806;BME280;5455;53.224;6.000;2023-03-01T01:00:18;103275.72;;;-1.29;100.00
10806;BME280;5455;53.224;6.000;2023-03-01T01:02:46;103266.97;;;-1.31;100.00
10806;BME280;5455;53.224;6.000;2023-03-01T01:05:14;103276.59;;;-1.35;100.00
10806;BME280;5455;53.224;6.000;2023-03-01T01:07:41;103269.56;;;-1.43;100.00
10806;BME280;5455;53.224;6.000;2023-03-01T01:10:09;103265.19;;;-1.44;100.00
10806;BME280;5455;53.224;6.000;2023-03-01T01:12:39;103267.91;;;-1.44;100.00
10806;BME280;5455;53.224;6.000;2023-03-01T01:15:06;103271.44;;;-1.43;100.00
10806;BME280;5455;53.224;6.000;2023-03-01T01:17:34;103268.78;;;-1.50;100.00
10806;BME280;5455;53.224;6.000;2023-03-01T01:20:01;103265.69;;;-1.53;100.00
10806;BME280;5455;53.224;6.000;2023-03-01T01:22:29;103255.97;;;-1.61;100.00
10806;BME280;5455;53.224;6.000;2023-03-01T01:24:56;103262.63;;;-1.63;100.00
10806;BME280;5455;53.224;6.000;2023-03-01T01:27:24;103264.75;;;-1.65;100.00
10806;BME280;5455;53.224;6.000;2023-03-01T01:29:52;103261.41;;;-1.68;100.00
10806;BME280;5455;53.224;6.000;2023-03-01T01:32:19;103254.72;;;-1.65;100.00
10806;BME280;5455;53.224;6.000;2023-03-01T01:34:46;103256.41;;;-1.64;100.00
10806;BME280;5455;53.224;6.000;2023-03-01T01:37:14;103245.16;;;-1.61;100.00
10806;BME280;5455;53.224;6.000;2023-03-01T01:39:43;103248.94;;;-1.69;100.00
10806;BME280;5455;53.224;6.000;2023-03-01T01:42:15;103237.69;;;-1.65;100.00
10806;BME280;5455;53.224;6.000;2023-03-01T01:44:45;103240.16;;;-1.64;100.00
10806;BME280;5455;53.224;6.000;2023-03-01T01:47:17;103234.31;;;-1.61;100.00
10806;BME280;5455;53.224;6.000;2023-03-01T01:49:53;103237.75;;;-1.72;100.00
10806;BME280;5455;53.224;6.000;2023-03-01T01:52:27;103243.16;;;-1.72;100.00
10806;BME280;5455;53.224;6.000;2023-03-01T01:54:58;103238.81;;;-1.80;100.00
10806;BME280;5455;53.224;6.000;2023-03-01T01:57:36;103236.75;;;-1.78;100.00
10806;BME280;5455;53.224;6.000;2023-03-01T02:00:17;103218.19;;;-1.74;100.00
10806;BME280;5455;53.224;6.000;2023-03-01T02:02:46;103211.91;;;-1.68;100.00
10806;BME280;5455;53.224;6.000;2023-03-01T02:05:25;103210.84;;;-1.67;100.00
10806;BME280;5455;53.224;6.000;2023-03-01T02:07:54;103210.03;;;-1.68;100.00
10806;BME280;5455;53.224;6.000;2023-03-01T02:10:23;103201.88;;;-1.61;100.00
10806;BME280;5455;53.224;6.000;2023-03-01T02:12:51;103197.06;;;-1.59;100.00
10806;BME280;5455;53.224;6.000;2023-03-01T02:15:19;103211.38;;;-1.52;100.00
10806;BME280;5455;53.224;6.000;2023-03-01T02:17:46;103206.34;;;-1.48;100.00
10806;BME280;5455;53.224;6.000;2023-03-01T02:20:29;103195.09;;;-1.45;100.00
10806;BME280;5455;53.224;6.000;2023-03-01T02:23:00;103195.03;;;-1.39;100.00
10806;BME280;5455;53.224;6.000;2023-03-01T02:25:32;103195.63;;;-1.37;100.00
10806;BME280;5455;53.224;6.000;2023-03-01T02:30:47;103192.03;;;-1.31;100.00
10806;BME280;5455;53.224;6.000;2023-03-01T02:33:35;103176.75;;;-1.43;100.00
10806;BME280;5455;53.224;6.000;2023-03-01T02:36:06;103177.53;;;-1.36;100.00
10806;BME280;5455;53.224;6.000;2023-03-01T02:38:34;103182.69;;;-1.35;100.00
10806;BME280;5455;53.224;6.000;2023-03-01T02:41:03;103175.84;;;-1.37;100.00
10806;BME280;5455;53.224;6.000;2023-03-01T02:43:32;103174.38;;;-1.33;100.00
10806;BME280;5455;53.224;6.000;2023-03-01T02:46:05;103170.25;;;-1.36;100.00
10806;BME280;5455;53.224;6.000;2023-03-01T02:48:52;103167.75;;;-1.37;100.00
10806;BME280;5455;53.224;6.000;2023-03-01T02:56:45;103155.72;;;-1.41;100.00
10806;BME280;5455;53.224;6.000;2023-03-01T02:59:19;103154.13;;;-1.49;100.00
10806;BME280;5455;53.224;6.000;2023-03-01T03:01:47;103151.91;;;-1.58;100.00
10806;BME280;5455;53.224;6.000;2023-03-01T03:04:18;103150.31;;;-1.66;100.00
10806;BME280;5455;53.224;6.000;2023-03-01T03:06:50;103149.09;;;-1.70;100.00
10806;BME280;5455;53.224;6.000;2023-03-01T03:09:17;103158.09;;;-1.76;100.00
10806;BME280;5455;53.224;6.000;2023-03-01T03:11:45;103163.94;;;-1.79;100.00
10806;BME280;5455;53.224;6.000;2023-03-01T03:14:15;103160.63;;;-1.81;100.00
10806;BME280;5455;53.224;6.000;2023-03-01T03:16:49;103158.56;;;-1.86;100.00
10806;BME280;5455;53.224;6.000;2023-03-01T03:19:18;103158.19;;;-1.89;100.00
10806;BME280;5455;53.224;6.000;2023-03-01T03:21:45;103150.50;;;-1.92;100.00
10806;BME280;5455;53.224;6.000;2023-03-01T03:24:12;103151.13;;;-1.90;100.00
10806;BME280;5455;53.224;6.000;2023-03-01T03:26:39;103155.47;;;-1.89;100.00
10806;BME280;5455;53.224;6.000;2023-03-01T03:29:06;103156.31;;;-1.89;100.00
10806;BME280;5455;53.224;6.000;2023-03-01T03:31:33;103145.28;;;-1.87;100.00
10806;BME280;5455;53.224;6.000;2023-03-01T03:34:00;103145.72;;;-1.90;100.00
10806;BME280;5455;53.224;6.000;2023-03-01T03:36:27;103142.19;;;-1.91;100.00
10806;BME280;5455;53.224;6.000;2023-03-01T03:38:54;103139.94;;;-1.94;100.00
10806;BME280;5455;53.224;6.000;2023-03-01T03:41:23;103145.56;;;-1.95;100.00
10806;BME280;5455;53.224;6.000;2023-03-01T03:43:50;103141.19;;;-1.96;100.00
10806;BME280;5455;53.224;6.000;2023-03-01T03:46:17;103138.50;;;-1.96;100.00
10806;BME280;5455;53.224;6.000;2023-03-01T03:48:45;103145.50;;;-1.89;100.00
10806;BME280;5455;53.224;6.000;2023-03-01T03:51:16;103138.38;;;-1.83;100.00
10806;BME280;5455;53.224;6.000;2023-03-01T03:53:44;103138.22;;;-1.88;100.00
10806;BME280;5455;53.224;6.000;2023-03-01T03:56:12;103141.41;;;-1.98;100.00
10806;BME280;5455;53.224;6.000;2023-03-01T03:58:39;103141.25;;;-2.03;100.00
10806;BME280;5455;53.224;6.000;2023-03-01T04:01:06;103137.94;;;-2.05;100.00
10806;BME280;5455;53.224;6.000;2023-03-01T04:03:33;103140.41;;;-2.03;100.00
10806;BME280;5455;53.224;6.000;2023-03-01T04:06:02;103146.44;;;-2.01;100.00
10806;BME280;5455;53.224;6.000;2023-03-01T04:08:31;103138.69;;;-1.98;100.00
10806;BME280;5455;53.224;6.000;2023-03-01T04:11:00;103143.47;;;-1.93;100.00
10806;BME280;5455;53.224;6.000;2023-03-01T04:13:48;103135.91;;;-1.85;100.00
10806;BME280;5455;53.224;6.000;2023-03-01T04:16:15;103129.22;;;-1.82;100.00
10806;BME280;5455;53.224;6.000;2023-03-01T04:18:43;103120.09;;;-1.81;100.00
10806;BME280;5455;53.224;6.000;2023-03-01T04:21:10;103128.00;;;-1.86;100.00
10806;BME280;5455;53.224;6.000;2023-03-01T04:23:38;103130.53;;;-1.91;100.00
10806;BME280;5455;53.224;6.000;2023-03-01T04:26:05;103117.06;;;-1.98;100.00
10806;BME280;5455;53.224;6.000;2023-03-01T04:28:37;103126.06;;;-2.04;100.00
10806;BME280;5455;53.224;6.000;2023-03-01T04:31:10;103124.44;;;-2.05;100.00
10806;BME280;5455;53.224;6.000;2023-03-01T04:33:47;103124.63;;;-2.06;100.00
10806;BME280;5455;53.224;6.000;2023-03-01T04:36:16;103131.25;;;-2.02;100.00
10806;BME280;5455;53.224;6.000;2023-03-01T04:38:45;103130.84;;;-1.99;100.00
10806;BME280;5455;53.224;6.000;2023-03-01T04:41:17;103140.59;;;-1.98;100.00
10806;BME280;5455;53.224;6.000;2023-03-01T04:43:44;103134.38;;;-1.99;100.00
10806;BME280;5455;53.224;6.000;2023-03-01T04:46:15;103129.56;;;-1.97;100.00
10806;BME280;5455;53.224;6.000;2023-03-01T04:48:43;103132.09;;;-2.02;100.00
10806;BME280;5455;53.224;6.000;2023-03-01T04:51:11;103133.84;;;-2.14;100.00
10806;BME280;5455;53.224;6.000;2023-03-01T04:53:42;103125.19;;;-2.22;100.00
10806;BME280;5455;53.224;6.000;2023-03-01T04:56:09;103117.28;;;-2.24;100.00
10806;BME280;5455;53.224;6.000;2023-03-01T04:58:36;103116.44;;;-2.25;100.00
10806;BME280;5455;53.224;6.000;2023-03-01T05:01:15;103119.41;;;-2.33;100.00
10806;BME280;5455;53.224;6.000;2023-03-01T05:03:44;103121.53;;;-2.41;100.00
10806;BME280;5455;53.224;6.000;2023-03-01T05:06:12;103114.75;;;-2.50;100.00
10806;BME280;5455;53.224;6.000;2023-03-01T05:08:40;103112.47;;;-2.53;100.00
10806;BME280;5455;53.224;6.000;2023-03-01T05:11:08;103106.00;;;-2.52;100.00
10806;BME280;5455;53.224;6.000;2023-03-01T05:13:37;103109.09;;;-2.49;100.00
10806;BME280;5455;53.224;6.000;2023-03-01T05:16:06;103104.50;;;-2.42;100.00
10806;BME280;5455;53.224;6.000;2023-03-01T05:18:34;103119.28;;;-2.44;100.00
10806;BME280;5455;53.224;6.000;2023-03-01T05:21:07;103100.41;;;-2.51;100.00
10806;BME280;5455;53.224;6.000;2023-03-01T05:23:34;103102.13;;;-2.63;100.00
10806;BME280;5455;53.224;6.000;2023-03-01T05:26:04;103096.75;;;-2.69;100.00
10806;BME280;5455;53.224;6.000;2023-03-01T05:28:37;103097.00;;;-2.71;100.00
10806;BME280;5455;53.224;6.000;2023-03-01T05:31:04;103092.81;;;-2.67;100.00
10806;BME280;5455;53.224;6.000;2023-03-01T05:33:40;103090.53;;;-2.70;100.00
10806;BME280;5455;53.224;6.000;2023-03-01T05:36:08;103080.97;;;-2.66;100.00
10806;BME280;5455;53.224;6.000;2023-03-01T05:38:36;103069.09;;;-2.58;100.00
10806;BME280;5455;53.224;6.000;2023-03-01T05:41:03;103071.97;;;-2.53;100.00
10806;BME280;5455;53.224;6.000;2023-03-01T05:43:31;103073.66;;;-2.59;100.00
10806;BME280;5455;53.224;6.000;2023-03-01T05:46:01;103072.91;;;-2.72;100.00
10806;BME280;5455;53.224;6.000;2023-03-01T05:48:28;103072.72;;;-2.78;100.00
10806;BME280;5455;53.224;6.000;2023-03-01T05:50:58;103054.03;;;-2.79;100.00
10806;BME280;5455;53.224;6.000;2023-03-01T05:53:26;103075.03;;;-2.81;100.00
10806;BME280;5455;53.224;6.000;2023-03-01T05:55:53;103063.19;;;-2.80;100.00
10806;BME280;5455;53.224;6.000;2023-03-01T05:58:20;103063.63;;;-2.83;100.00
10806;BME280;5455;53.224;6.000;2023-03-01T06:00:49;103061.53;;;-2.81;100.00
10806;BME280;5455;53.224;6.000;2023-03-01T06:03:20;103065.50;;;-2.84;100.00
10806;BME280;5455;53.224;6.000;2023-03-01T06:05:47;103068.38;;;-2.85;100.00
10806;BME280;5455;53.224;6.000;2023-03-01T06:08:14;103065.06;;;-2.81;100.00
10806;BME280;5455;53.224;6.000;2023-03-01T06:10:41;103062.97;;;-2.79;100.00
10806;BME280;5455;53.224;6.000;2023-03-01T06:13:08;103061.09;;;-2.78;100.00
10806;BME280;5455;53.224;6.000;2023-03-01T06:15:35;103060.06;;;-2.77;100.00
10806;BME280;5455;53.224;6.000;2023-03-01T06:18:02;103054.66;;;-2.77;100.00
10806;BME280;5455;53.224;6.000;2023-03-01T06:20:29;103056.09;;;-2.74;100.00
10806;BME280;5455;53.224;6.000;2023-03-01T06:22:57;103057.97;;;-2.75;100.00
10806;BME280;5455;53.224;6.000;2023-03-01T06:25:25;103054.03;;;-2.79;100.00
10806;BME280;5455;53.224;6.000;2023-03-01T06:27:53;103057.59;;;-2.85;100.00
10806;BME280;5455;53.224;6.000;2023-03-01T06:30:21;103072.31;;;-2.81;100.00
10806;BME280;5455;53.224;6.000;2023-03-01T06:32:49;103074.59;;;-2.78;100.00
10806;BME280;5455;53.224;6.000;2023-03-01T06:35:18;103076.25;;;-2.77;100.00
10806;BME280;5455;53.224;6.000;2023-03-01T06:37:46;103076.69;;;-2.80;100.00
10806;BME280;5455;53.224;6.000;2023-03-01T06:40:14;103079.13;;;-2.72;100.00
10806;BME280;5455;53.224;6.000;2023-03-01T06:42:43;103067.28;;;-2.64;100.00
10806;BME280;5455;53.224;6.000;2023-03-01T06:45:13;103071.59;;;-2.63;100.00
10806;BME280;5455;53.224;6.000;2023-03-01T06:47:40;103067.03;;;-2.63;100.00
10806;BME280;5455;53.224;6.000;2023-03-01T06:50:08;103068.06;;;-2.64;100.00
10806;BME280;5455;53.224;6.000;2023-03-01T06:52:35;103071.84;;;-2.65;100.00
10806;BME280;5455;53.224;6.000;2023-03-01T06:55:02;103077.84;;;-2.63;100.00
10806;BME280;5455;53.224;6.000;2023-03-01T06:57:29;103081.78;;;-2.59;100.00
10806;BME280;5455;53.224;6.000;2023-03-01T06:59:56;103076.09;;;-2.51;100.00
10806;BME280;5455;53.224;6.000;2023-03-01T07:02:24;103082.75;;;-2.47;100.00
10806;BME280;5455;53.224;6.000;2023-03-01T07:04:51;103088.13;;;-2.47;100.00
10806;BME280;5455;53.224;6.000;2023-03-01T07:07:18;103098.66;;;-2.39;100.00
10806;BME280;5455;53.224;6.000;2023-03-01T07:09:46;103083.91;;;-2.36;100.00
10806;BME280;5455;53.224;6.000;2023-03-01T07:12:15;103089.25;;;-2.30;100.00
10806;BME280;5455;53.224;6.000;2023-03-01T07:14:43;103090.69;;;-2.27;100.00
10806;BME280;5455;53.224;6.000;2023-03-01T07:17:10;103092.13;;;-2.25;100.00
10806;BME280;5455;53.224;6.000;2023-03-01T07:19:37;103093.41;;;-2.27;100.00
10806;BME280;5455;53.224;6.000;2023-03-01T07:22:04;103092.16;;;-2.31;100.00
10806;BME280;5455;53.224;6.000;2023-03-01T07:24:34;103092.34;;;-2.26;100.00
10806;BME280;5455;53.224;6.000;2023-03-01T07:27:01;103096.69;;;-2.25;100.00
10806;BME280;5455;53.224;6.000;2023-03-01T07:29:28;103090.41;;;-2.19;100.00
10806;BME280;5455;53.224;6.000;2023-03-01T07:31:55;103087.91;;;-2.14;100.00
10806;BME280;5455;53.224;6.000;2023-03-01T07:34:22;103094.31;;;-2.08;100.00
10806;BME280;5455;53.224;6.000;2023-03-01T07:36:49;103100.69;;;-2.03;100.00
10806;BME280;5455;53.224;6.000;2023-03-01T07:39:16;103088.41;;;-1.99;100.00
10806;BME280;5455;53.224;6.000;2023-03-01T07:41:45;103097.13;;;-1.97;100.00
10806;BME280;5455;53.224;6.000;2023-03-01T07:44:12;103098.56;;;-1.94;100.00
10806;BME280;5455;53.224;6.000;2023-03-01T07:46:39;103097.91;;;-1.90;100.00
10806;BME280;5455;53.224;6.000;2023-03-01T07:49:06;103103.69;;;-1.86;100.00
10806;BME280;5455;53.224;6.000;2023-03-01T07:51:33;103111.72;;;-1.80;100.00
10806;BME280;5455;53.224;6.000;2023-03-01T07:54:00;103111.69;;;-1.73;100.00
10806;BME280;5455;53.224;6.000;2023-03-01T07:56:27;103110.81;;;-1.67;100.00
10806;BME280;5455;53.224;6.000;2023-03-01T07:58:55;103108.19;;;-1.55;100.00
10806;BME280;5455;53.224;6.000;2023-03-01T08:01:22;103103.31;;;-1.47;100.00
10806;BME280;5455;53.224;6.000;2023-03-01T08:03:49;103107.63;;;-1.39;100.00
10806;BME280;5455;53.224;6.000;2023-03-01T08:06:17;103107.78;;;-1.34;100.00
10806;BME280;5455;53.224;6.000;2023-03-01T08:08:44;103099.81;;;-1.29;100.00
10806;BME280;5455;53.224;6.000;2023-03-01T08:11:13;103105.59;;;-1.26;100.00
10806;BME280;5455;53.224;6.000;2023-03-01T08:13:42;103103.28;;;-1.22;100.00
10806;BME280;5455;53.224;6.000;2023-03-01T08:16:14;103104.88;;;-1.15;100.00
10806;BME280;5455;53.224;6.000;2023-03-01T08:18:42;103108.09;;;-1.06;100.00
10806;BME280;5455;53.224;6.000;2023-03-01T08:21:12;103116.94;;;-0.99;100.00
10806;BME280;5455;53.224;6.000;2023-03-01T08:23:39;103120.88;;;-0.95;100.00
10806;BME280;5455;53.224;6.000;2023-03-01T08:26:19;103112.09;;;-0.90;100.00
10806;BME280;5455;53.224;6.000;2023-03-01T08:28:47;103099.50;;;-0.85;100.00
10806;BME280;5455;53.224;6.000;2023-03-01T08:31:30;103091.44;;;-0.73;100.00
10806;BME280;5455;53.224;6.000;2023-03-01T08:34:00;103093.59;;;-0.64;100.00
10806;BME280;5455;53.224;6.000;2023-03-01T08:36:33;103087.41;;;-0.52;100.00
10806;BME280;5455;53.224;6.000;2023-03-01T08:39:01;103088.34;;;-0.47;100.00
10806;BME280;5455;53.224;6.000;2023-03-01T08:41:29;103088.03;;;-0.39;100.00
10806;BME280;5455;53.224;6.000;2023-03-01T08:43:56;103086.44;;;-0.28;100.00
10806;BME280;5455;53.224;6.000;2023-03-01T08:46:36;103081.84;;;-0.16;100.00
10806;BME280;5455;53.224;6.000;2023-03-01T08:49:06;103092.97;;;-0.06;100.00
10806;BME280;5455;53.224;6.000;2023-03-01T08:51:34;103080.22;;;0.06;100.00
10806;BME280;5455;53.224;6.000;2023-03-01T08:54:05;103087.56;;;0.17;100.00
10806;BME280;5455;53.224;6.000;2023-03-01T08:56:32;103083.31;;;0.21;100.00
10806;BME280;5455;53.224;6.000;2023-03-01T08:58:59;103085.81;;;0.34;100.00
10806;BME280;5455;53.224;6.000;2023-03-01T09:01:26;103084.38;;;0.43;100.00
10806;BME280;5455;53.224;6.000;2023-03-01T09:03:53;103087.34;;;0.53;100.00
10806;BME280;5455;53.224;6.000;2023-03-01T09:06:21;103079.41;;;0.64;100.00
10806;BME280;5455;53.224;6.000;2023-03-01T09:08:49;103075.41;;;0.78;100.00
10806;BME280;5455;53.224;6.000;2023-03-01T09:11:20;103078.31;;;0.88;100.00
10806;BME280;5455;53.224;6.000;2023-03-01T09:13:48;103084.81;;;0.98;100.00
10806;BME280;5455;53.224;6.000;2023-03-01T09:16:18;103089.94;;;1.11;100.00
10806;BME280;5455;53.224;6.000;2023-03-01T09:18:49;103090.03;;;1.28;100.00
10806;BME280;5455;53.224;6.000;2023-03-01T09:21:19;103094.59;;;1.39;100.00
10806;BME280;5455;53.224;6.000;2023-03-01T09:24:04;103088.59;;;1.54;100.00
10806;BME280;5455;53.224;6.000;2023-03-01T09:26:32;103079.81;;;1.63;100.00
10806;BME280;5455;53.224;6.000;2023-03-01T09:28:59;103082.38;;;1.70;100.00
10806;BME280;5455;53.224;6.000;2023-03-01T09:31:27;103080.59;;;1.76;100.00
10806;BME280;5455;53.224;6.000;2023-03-01T09:33:54;103066.06;;;1.70;100.00
10806;BME280;5455;53.224;6.000;2023-03-01T09:36:23;103069.34;;;1.72;100.00
10806;BME280;5455;53.224;6.000;2023-03-01T09:38:52;103073.59;;;1.80;100.00
10806;BME280;5455;53.224;6.000;2023-03-01T09:43:56;103074.50;;;2.02;100.00
10806;BME280;5455;53.224;6.000;2023-03-01T09:46:26;103065.69;;;2.11;100.00
10806;BME280;5455;53.224;6.000;2023-03-01T09:49:09;103080.09;;;2.29;100.00
10806;BME280;5455;53.224;6.000;2023-03-01T09:51:38;103082.75;;;2.40;100.00
10806;BME280;5455;53.224;6.000;2023-03-01T09:54:05;103086.38;;;2.46;100.00
10806;BME280;5455;53.224;6.000;2023-03-01T09:56:57;103079.16;;;2.56;100.00
10806;BME280;5455;53.224;6.000;2023-03-01T10:02:44;103074.63;;;2.84;100.00
10806;BME280;5455;53.224;6.000;2023-03-01T10:05:24;103072.94;;;2.99;100.00
10806;BME280;5455;53.224;6.000;2023-03-01T10:10:48;103086.81;;;3.19;100.00
10806;BME280;5455;53.224;6.000;2023-03-01T10:13:27;103088.72;;;3.46;100.00
10806;BME280;5455;53.224;6.000;2023-03-01T10:16:03;103091.56;;;3.56;100.00
10806;BME280;5455;53.224;6.000;2023-03-01T10:18:33;103090.31;;;3.63;100.00
10806;BME280;5455;53.224;6.000;2023-03-01T10:21:13;103081.59;;;3.66;100.00
10806;BME280;5455;53.224;6.000;2023-03-01T10:23:42;103080.06;;;3.75;100.00
10806;BME280;5455;53.224;6.000;2023-03-01T10:31:44;103068.84;;;4.09;100.00
10806;BME280;5455;53.224;6.000;2023-03-01T10:34:18;103063.78;;;4.22;100.00
10806;BME280;5455;53.224;6.000;2023-03-01T10:36:49;103053.69;;;4.23;100.00
10806;BME280;5455;53.224;6.000;2023-03-01T10:39:19;103049.13;;;4.33;100.00
10806;BME280;5455;53.224;6.000;2023-03-01T10:41:58;103051.41;;;4.52;100.00
10806;BME280;5455;53.224;6.000;2023-03-01T10:44:42;103048.13;;;4.50;100.00
10806;BME280;5455;53.224;6.000;2023-03-01T10:52:23;103040.34;;;4.78;100.00
10806;BME280;5455;53.224;6.000;2023-03-01T10:55:02;103039.34;;;4.94;100.00
10806;BME280;5455;53.224;6.000;2023-03-01T10:57:35;103043.44;;;4.97;100.00
10806;BME280;5455;53.224;6.000;2023-03-01T11:02:40;103035.88;;;5.24;100.00
10806;BME280;5455;53.224;6.000;2023-03-01T11:05:18;103047.94;;;5.33;100.00
10806;BME280;5455;53.224;6.000;2023-03-01T11:10:18;103051.81;;;5.47;100.00
10806;BME280;5455;53.224;6.000;2023-03-01T11:12:45;103050.44;;;5.45;100.00
10806;BME280;5455;53.224;6.000;2023-03-01T11:15:26;103039.78;;;5.43;100.00
10806;BME280;5455;53.224;6.000;2023-03-01T11:17:56;103045.78;;;5.45;100.00
10806;BME280;5455;53.224;6.000;2023-03-01T11:20:39;103044.41;;;5.48;100.00
10806;BME280;5455;53.224;6.000;2023-03-01T11:23:11;103040.88;;;5.57;100.00
10806;BME280;5455;53.224;6.000;2023-03-01T11:25:46;103044.16;;;5.60;100.00
10806;BME280;5455;53.224;6.000;2023-03-01T11:28:17;103046.94;;;5.65;100.00
10806;BME280;5455;53.224;6.000;2023-03-01T11:31:08;103042.00;;;5.72;100.00
10806;BME280;5455;53.224;6.000;2023-03-01T11:33:49;103040.38;;;5.86;100.00
10806;BME280;5455;53.224;6.000;2023-03-01T11:36:38;103045.59;;;6.02;100.00
10806;BME280;5455;53.224;6.000;2023-03-01T11:41:56;103040.38;;;5.96;100.00
10806;BME280;5455;53.224;6.000;2023-03-01T11:44:41;103035.19;;;6.04;100.00
10806;BME280;5455;53.224;6.000;2023-03-01T11:47:33;103033.81;;;6.02;100.00
10806;BME280;5455;53.224;6.000;2023-03-01T11:55:38;103021.22;;;6.21;100.00
10806;BME280;5455;53.224;6.000;2023-03-01T12:03:41;103017.63;;;6.26;100.00
10806;BME280;5455;53.224;6.000;2023-03-01T12:38:16;102969.00;;;6.67;100.00
10806;BME280;5455;53.224;6.000;2023-03-01T12:41:05;102967.34;;;6.76;100.00
10806;BME280;5455;53.224;6.000;2023-03-01T12:43:49;102965.69;;;6.75;100.00
10806;BME280;5455;53.224;6.000;2023-03-01T12:46:39;102961.28;;;6.74;100.00
10806;BME280;5455;53.224;6.000;2023-03-01T12:49:15;102964.50;;;6.91;100.00
10806;BME280;5455;53.224;6.000;2023-03-01T12:51:53;102966.44;;;6.85;100.00
10806;BME280;5455;53.224;6.000;2023-03-01T12:54:41;102965.06;;;6.88;100.00
10806;BME280;5455;53.224;6.000;2023-03-01T12:57:20;102954.38;;;6.86;100.00
10806;BME280;5455;53.224;6.000;2023-03-01T13:02:23;102963.03;;;7.03;100.00
10806;BME280;5455;53.224;6.000;2023-03-01T13:04:56;102955.69;;;6.99;100.00
10806;BME280;5455;53.224;6.000;2023-03-01T13:07:33;102947.47;;;6.99;100.00
10806;BME280;5455;53.224;6.000;2023-03-01T13:10:15;102940.84;;;7.05;100.00
10806;BME280;5455;53.224;6.000;2023-03-01T13:17:56;102935.72;;;7.27;100.00
10806;BME280;5455;53.224;6.000;2023-03-01T13:20:33;102932.13;;;7.32;100.00
10806;BME280;5455;53.224;6.000;2023-03-01T13:23:10;102923.34;;;7.35;100.00
10806;BME280;5455;53.224;6.000;2023-03-01T13:33:55;102920.28;;;7.41;100.00
10806;BME280;5455;53.224;6.000;2023-03-01T13:38:58;102917.78;;;7.40;98.63
10806;BME280;5455;53.224;6.000;2023-03-01T13:49:40;102906.50;;;7.46;93.81
10806;BME280;5455;53.224;6.000;2023-03-01T13:55:04;102912.94;;;7.65;90.02
10806;BME280;5455;53.224;6.000;2023-03-01T13:57:36;102918.44;;;7.60;88.90
10806;BME280;5455;53.224;6.000;2023-03-01T14:00:06;102906.03;;;7.68;88.34
10806;BME280;5455;53.224;6.000;2023-03-01T14:02:34;102915.03;;;7.73;87.64
10806;BME280;5455;53.224;6.000;2023-03-01T14:05:02;102897.16;;;7.76;87.95
10806;BME280;5455;53.224;6.000;2023-03-01T14:07:30;102891.72;;;7.71;86.98
10806;BME280;5455;53.224;6.000;2023-03-01T14:10:02;102898.81;;;7.77;87.79
10806;BME280;5455;53.224;6.000;2023-03-01T14:12:39;102900.16;;;7.80;84.69
10806;BME280;5455;53.224;6.000;2023-03-01T14:20:24;102896.16;;;7.67;86.32
10806;BME280;5455;53.224;6.000;2023-03-01T14:22:55;102880.81;;;7.66;87.44
10806;BME280;5455;53.224;6.000;2023-03-01T14:27:57;102878.38;;;7.59;87.56
10806;BME280;5455;53.224;6.000;2023-03-01T14:30:45;102871.88;;;7.50;87.03
10806;BME280;5455;53.224;6.000;2023-03-01T14:33:23;102878.78;;;7.48;87.73
10806;BME280;5455;53.224;6.000;2023-03-01T14:43:39;102853.97;;;7.58;82.55
10806;BME280;5455;53.224;6.000;2023-03-01T14:46:20;102855.31;;;7.60;83.12
10806;BME280;5455;53.224;6.000;2023-03-01T14:48:50;102843.41;;;7.70;83.25
10806;BME280;5455;53.224;6.000;2023-03-01T14:51:17;102850.22;;;7.72;83.83
10806;BME280;5455;53.224;6.000;2023-03-01T14:53:44;102855.69;;;7.78;82.49
10806;BME280;5455;53.224;6.000;2023-03-01T14:56:17;102854.38;;;7.70;82.82
10806;BME280;5455;53.224;6.000;2023-03-01T14:58:45;102851.06;;;7.73;84.56
10806;BME280;5455;53.224;6.000;2023-03-01T15:01:16;102841.19;;;7.72;84.04
10806;BME280;5455;53.224;6.000;2023-03-01T15:03:48;102843.06;;;7.76;84.52
10806;BME280;5455;53.224;6.000;2023-03-01T15:06:20;102833.72;;;7.78;84.61
10806;BME280;5455;53.224;6.000;2023-03-01T15:08:51;102833.94;;;7.81;83.88
10806;BME280;5455;53.224;6.000;2023-03-01T15:11:24;102834.16;;;7.85;84.65
10806;BME280;5455;53.224;6.000;2023-03-01T15:13:54;102827.59;;;7.86;85.00
10806;BME280;5455;53.224;6.000;2023-03-01T15:16:31;102817.81;;;7.74;84.23
10806;BME280;5455;53.224;6.000;2023-03-01T15:19:06;102811.00;;;7.72;85.65